sensor_id;sensor_type;location;lat;lon;timestamp;P1;durP1;ratioP1;P2;durP2;ratioP2
24206;SDS011;12351;52.284;9.160;2023-02-28T00:00:37;1.53;;;0.60;;
24206;SDS011;12351;52.284;9.160;2023-02-28T00:03:28;1.43;;;0.60;;
24206;SDS011;12351;52.284;9.160;2023-02-28T00:06:17;1.47;;;0.60;;
24206;SDS011;12351;52.284;9.160;2023-02-28T00:09:10;1.45;;;0.60;;
24206;SDS011;12351;52.284;9.160;2023-02-28T00:12:00;1.33;;;0.70;;
24206;SDS011;12351;52.284;9.160;2023-02-28T00:14:49;1.10;;;0.63;;
24206;SDS011;12351;52.284;9.160;2023-02-28T00:17:40;1.67;;;0.60;;
24206;SDS011;12351;52.284;9.160;2023-02-28T00:20:32;1.27;;;0.60;;
24206;SDS011;12351;52.284;9.160;2023-02-28T00:23:20;0.60;;;0.53;;
24206;SDS011;12351;52.284;9.160;2023-02-28T00:26:12;1.93;;;0.70;;
24206;SDS011;12351;52.284;9.160;2023-02-28T00:29:03;2.83;;;0.73;;
24206;SDS011;12351;52.284;9.160;2023-02-28T00:31:53;0.80;;;0.43;;
24206;SDS011;12351;52.284;9.160;2023-02-28T00:34:43;2.07;;;0.60;;
24206;SDS011;12351;52.284;9.160;2023-02-28T00:37:34;1.03;;;0.50;;
24206;SDS011;12351;52.284;9.160;2023-02-28T00:40:23;1.63;;;0.80;;
24206;SDS011;12351;52.284;9.160;2023-02-28T00:43:13;1.50;;;0.67;;
24206;SDS011;12351;52.284;9.160;2023-02-28T00:46:05;1.60;;;0.73;;
24206;SDS011;12351;52.284;9.160;2023-02-28T00:48:55;0.40;;;0.30;;
24206;SDS011;12351;52.284;9.160;2023-02-28T00:51:44;2.57;;;0.50;;
24206;SDS011;12351;52.284;9.160;2023-02-28T00:54:35;2.33;;;0.80;;
24206;SDS011;12351;52.284;9.160;2023-02-28T00:57:26;1.10;;;0.60;;
24206;SDS011;12351;52.284;9.160;2023-02-28T01:00:16;2.10;;;0.67;;
24206;SDS011;12351;52.284;9.160;2023-02-28T01:03:04;1.77;;;0.57;;
24206;SDS011;12351;52.284;9.160;2023-02-28T01:05:55;1.47;;;0.60;;
24206;SDS011;12351;52.284;9.160;2023-02-28T01:08:48;2.58;;;0.70;;
24206;SDS011;12351;52.284;9.160;2023-02-28T01:11:42;1.03;;;0.57;;
24206;SDS011;12351;52.284;9.160;2023-02-28T01:14:30;1.20;;;0.60;;
24206;SDS011;12351;52.284;9.160;2023-02-28T01:17:20;0.70;;;0.60;;
24206;SDS011;12351;52.284;9.160;2023-02-28T01:20:12;1.57;;;0.70;;
24206;SDS011;12351;52.284;9.160;2023-02-28T01:23:04;2.10;;;0.62;;
24206;SDS011;12351;52.284;9.160;2023-02-28T01:25:52;2.30;;;0.70;;
24206;SDS011;12351;52.284;9.160;2023-02-28T01:28:43;1.20;;;0.60;;
24206;SDS011;12351;52.284;9.160;2023-02-28T01:34:24;1.15;;;0.55;;
24206;SDS011;12351;52.284;9.160;2023-02-28T01:37:12;0.97;;;0.50;;
24206;SDS011;12351;52.284;9.160;2023-02-28T01:40:04;1.03;;;0.80;;
24206;SDS011;12351;52.284;9.160;2023-02-28T01:42:52;0.70;;;0.50;;
24206;SDS011;12351;52.284;9.160;2023-02-28T01:45:46;1.53;;;0.57;;
24206;SDS011;12351;52.284;9.160;2023-02-28T01:48:36;2.00;;;0.50;;
24206;SDS011;12351;52.284;9.160;2023-02-28T01:54:18;1.20;;;0.63;;
24206;SDS011;12351;52.284;9.160;2023-02-28T01:57:05;1.10;;;0.57;;
24206;SDS011;12351;52.284;9.160;2023-02-28T01:59:57;1.30;;;0.60;;
24206;SDS011;12351;52.284;9.160;2023-02-28T02:02:48;0.45;;;0.40;;
24206;SDS011;12351;52.284;9.160;2023-02-28T02:05:38;1.73;;;0.70;;
24206;SDS011;12351;52.284;9.160;2023-02-28T02:08:31;1.55;;;0.57;;
24206;SDS011;12351;52.284;9.160;2023-02-28T02:11:20;0.60;;;0.50;;
24206;SDS011;12351;52.284;9.160;2023-02-28T02:31:13;0.53;;;0.40;;
24206;SDS011;12351;52.284;9.160;2023-02-28T02:36:46;1.03;;;0.40;;
24206;SDS011;12351;52.284;9.160;2023-02-28T02:45:17;1.13;;;0.50;;
24206;SDS011;12351;52.284;9.160;2023-02-28T02:48:07;0.90;;;0.60;;
24206;SDS011;12351;52.284;9.160;2023-02-28T02:50:55;0.97;;;0.40;;
24206;SDS011;12351;52.284;9.160;2023-02-28T02:56:33;0.83;;;0.50;;
24206;SDS011;12351;52.284;9.160;2023-02-28T02:59:27;0.75;;;0.60;;
24206;SDS011;12351;52.284;9.160;2023-02-28T03:02:17;0.73;;;0.43;;
24206;SDS011;12351;52.284;9.160;2023-02-28T03:05:08;0.80;;;0.33;;
24206;SDS011;12351;52.284;9.160;2023-02-28T03:07:58;1.00;;;0.60;;
24206;SDS011;12351;52.284;9.160;2023-02-28T03:10:48;1.60;;;0.60;;
24206;SDS011;12351;52.284;9.160;2023-02-28T03:16:32;1.30;;;0.60;;
24206;SDS011;12351;52.284;9.160;2023-02-28T03:33:36;2.27;;;0.60;;
24206;SDS011;12351;52.284;9.160;2023-02-28T03:36:26;0.80;;;0.60;;
24206;SDS011;12351;52.284;9.160;2023-02-28T03:39:16;1.60;;;0.60;;
24206;SDS011;12351;52.284;9.160;2023-02-28T03:42:09;2.00;;;0.60;;
24206;SDS011;12351;52.284;9.160;2023-02-28T03:44:57;0.77;;;0.50;;
24206;SDS011;12351;52.284;9.160;2023-02-28T03:50:38;1.27;;;0.70;;
24206;SDS011;12351;52.284;9.160;2023-02-28T03:53:29;0.53;;;0.43;;
24206;SDS011;12351;52.284;9.160;2023-02-28T03:56:19;0.80;;;0.70;;
24206;SDS011;12351;52.284;9.160;2023-02-28T04:01:59;0.83;;;0.53;;
24206;SDS011;12351;52.284;9.160;2023-02-28T04:04:48;2.20;;;0.60;;
24206;SDS011;12351;52.284;9.160;2023-02-28T04:07:35;1.47;;;0.50;;
24206;SDS011;12351;52.284;9.160;2023-02-28T04:10:27;4.17;;;0.60;;
24206;SDS011;12351;52.284;9.160;2023-02-28T04:13:16;1.17;;;0.50;;
24206;SDS011;12351;52.284;9.160;2023-02-28T04:16:07;2.13;;;0.77;;
24206;SDS011;12351;52.284;9.160;2023-02-28T04:18:59;1.20;;;0.60;;
24206;SDS011;12351;52.284;9.160;2023-02-28T04:21:52;0.80;;;0.50;;
24206;SDS011;12351;52.284;9.160;2023-02-28T04:24:40;0.40;;;0.40;;
24206;SDS011;12351;52.284;9.160;2023-02-28T04:27:30;0.80;;;0.50;;
24206;SDS011;12351;52.284;9.160;2023-02-28T04:30:22;3.27;;;0.60;;
24206;SDS011;12351;52.284;9.160;2023-02-28T04:33:11;1.00;;;0.60;;
24206;SDS011;12351;52.284;9.160;2023-02-28T04:36:04;0.70;;;0.47;;
24206;SDS011;12351;52.284;9.160;2023-02-28T04:38:54;0.80;;;0.70;;
24206;SDS011;12351;52.284;9.160;2023-02-28T04:41:44;0.40;;;0.40;;
24206;SDS011;12351;52.284;9.160;2023-02-28T04:44:32;0.60;;;0.50;;
24206;SDS011;12351;52.284;9.160;2023-02-28T04:47:24;1.90;;;0.70;;
24206;SDS011;12351;52.284;9.160;2023-02-28T04:50:12;1.80;;;0.50;;
24206;SDS011;12351;52.284;9.160;2023-02-28T04:53:05;0.50;;;0.40;;
24206;SDS011;12351;52.284;9.160;2023-02-28T04:55:52;1.93;;;0.40;;
24206;SDS011;12351;52.284;9.160;2023-02-28T04:58:41;1.00;;;0.60;;
24206;SDS011;12351;52.284;9.160;2023-02-28T05:01:31;1.47;;;0.73;;
24206;SDS011;12351;52.284;9.160;2023-02-28T05:04:20;0.70;;;0.50;;
24206;SDS011;12351;52.284;9.160;2023-02-28T05:07:12;0.80;;;0.50;;
24206;SDS011;12351;52.284;9.160;2023-02-28T05:10:00;1.50;;;0.60;;
24206;SDS011;12351;52.284;9.160;2023-02-28T05:12:51;1.93;;;0.50;;
24206;SDS011;12351;52.284;9.160;2023-02-28T05:15:40;1.10;;;0.50;;
24206;SDS011;12351;52.284;9.160;2023-02-28T05:18:31;1.30;;;0.50;;
24206;SDS011;12351;52.284;9.160;2023-02-28T05:24:12;1.27;;;0.50;;
24206;SDS011;12351;52.284;9.160;2023-02-28T05:27:01;1.47;;;0.40;;
24206;SDS011;12351;52.284;9.160;2023-02-28T05:29:52;0.70;;;0.40;;
24206;SDS011;12351;52.284;9.160;2023-02-28T05:32:42;1.17;;;0.60;;
24206;SDS011;12351;52.284;9.160;2023-02-28T05:35:34;0.60;;;0.50;;
24206;SDS011;12351;52.284;9.160;2023-02-28T05:38:25;0.90;;;0.40;;
24206;SDS011;12351;52.284;9.160;2023-02-28T05:41:14;0.70;;;0.50;;
24206;SDS011;12351;52.284;9.160;2023-02-28T05:44:03;0.77;;;0.50;;
24206;SDS011;12351;52.284;9.160;2023-02-28T05:46:51;0.43;;;0.40;;
24206;SDS011;12351;52.284;9.160;2023-02-28T05:49:42;0.40;;;0.40;;
24206;SDS011;12351;52.284;9.160;2023-02-28T05:52:29;1.63;;;0.87;;
24206;SDS011;12351;52.284;9.160;2023-02-28T05:55:18;1.00;;;0.60;;
24206;SDS011;12351;52.284;9.160;2023-02-28T05:58:07;0.90;;;0.50;;
24206;SDS011;12351;52.284;9.160;2023-02-28T06:00:56;1.80;;;0.50;;
24206;SDS011;12351;52.284;9.160;2023-02-28T06:03:48;1.47;;;0.53;;
24206;SDS011;12351;52.284;9.160;2023-02-28T06:09:26;1.55;;;0.53;;
24206;SDS011;12351;52.284;9.160;2023-02-28T06:12:14;1.10;;;0.60;;
24206;SDS011;12351;52.284;9.160;2023-02-28T06:15:03;1.30;;;0.60;;
24206;SDS011;12351;52.284;9.160;2023-02-28T06:17:55;0.80;;;0.50;;
24206;SDS011;12351;52.284;9.160;2023-02-28T06:20:43;1.20;;;0.60;;
24206;SDS011;12351;52.284;9.160;2023-02-28T06:23:32;1.03;;;0.47;;
24206;SDS011;12351;52.284;9.160;2023-02-28T06:26:24;0.73;;;0.47;;
24206;SDS011;12351;52.284;9.160;2023-02-28T06:29:13;0.90;;;0.63;;
24206;SDS011;12351;52.284;9.160;2023-02-28T06:32:07;1.42;;;0.50;;
24206;SDS011;12351;52.284;9.160;2023-02-28T06:34:55;1.97;;;0.60;;
24206;SDS011;12351;52.284;9.160;2023-02-28T06:37:46;1.10;;;0.60;;
24206;SDS011;12351;52.284;9.160;2023-02-28T06:40:35;0.83;;;0.60;;
24206;SDS011;12351;52.284;9.160;2023-02-28T06:43:24;1.80;;;0.63;;
24206;SDS011;12351;52.284;9.160;2023-02-28T06:46:15;0.53;;;0.40;;
24206;SDS011;12351;52.284;9.160;2023-02-28T06:49:06;0.70;;;0.45;;
24206;SDS011;12351;52.284;9.160;2023-02-28T06:51:58;2.20;;;0.60;;
24206;SDS011;12351;52.284;9.160;2023-02-28T06:54:48;0.90;;;0.50;;
24206;SDS011;12351;52.284;9.160;2023-02-28T06:57:39;1.30;;;0.80;;
24206;SDS011;12351;52.284;9.160;2023-02-28T07:00:32;1.33;;;0.60;;
24206;SDS011;12351;52.284;9.160;2023-02-28T07:03:21;0.70;;;0.50;;
24206;SDS011;12351;52.284;9.160;2023-02-28T07:06:13;1.72;;;0.75;;
24206;SDS011;12351;52.284;9.160;2023-02-28T07:11:53;0.78;;;0.53;;
24206;SDS011;12351;52.284;9.160;2023-02-28T07:14:44;0.50;;;0.40;;
24206;SDS011;12351;52.284;9.160;2023-02-28T07:17:34;1.43;;;0.40;;
24206;SDS011;12351;52.284;9.160;2023-02-28T07:20:24;0.60;;;0.40;;
24206;SDS011;12351;52.284;9.160;2023-02-28T07:23:14;1.17;;;0.70;;
24206;SDS011;12351;52.284;9.160;2023-02-28T07:26:03;3.70;;;0.77;;
24206;SDS011;12351;52.284;9.160;2023-02-28T07:28:56;0.80;;;0.47;;
24206;SDS011;12351;52.284;9.160;2023-02-28T07:31:47;1.37;;;0.50;;
24206;SDS011;12351;52.284;9.160;2023-02-28T07:34:37;1.10;;;0.60;;
24206;SDS011;12351;52.284;9.160;2023-02-28T07:37:25;1.23;;;0.50;;
24206;SDS011;12351;52.284;9.160;2023-02-28T07:40:15;0.90;;;0.43;;
24206;SDS011;12351;52.284;9.160;2023-02-28T07:43:06;0.60;;;0.60;;
24206;SDS011;12351;52.284;9.160;2023-02-28T07:48:50;1.67;;;0.80;;
24206;SDS011;12351;52.284;9.160;2023-02-28T07:51:38;1.60;;;1.07;;
24206;SDS011;12351;52.284;9.160;2023-02-28T07:54:25;2.03;;;1.20;;
24206;SDS011;12351;52.284;9.160;2023-02-28T07:57:15;3.57;;;1.23;;
24206;SDS011;12351;52.284;9.160;2023-02-28T08:00:09;1.53;;;1.23;;
24206;SDS011;12351;52.284;9.160;2023-02-28T08:02:59;2.87;;;1.47;;
24206;SDS011;12351;52.284;9.160;2023-02-28T08:05:48;3.43;;;1.63;;
24206;SDS011;12351;52.284;9.160;2023-02-28T08:08:39;6.63;;;2.00;;
24206;SDS011;12351;52.284;9.160;2023-02-28T08:11:31;5.50;;;2.03;;
24206;SDS011;12351;52.284;9.160;2023-02-28T08:14:19;6.63;;;1.97;;
24206;SDS011;12351;52.284;9.160;2023-02-28T08:17:11;4.43;;;2.40;;
24206;SDS011;12351;52.284;9.160;2023-02-28T08:20:03;6.20;;;2.40;;
24206;SDS011;12351;52.284;9.160;2023-02-28T08:22:51;4.80;;;2.27;;
24206;SDS011;12351;52.284;9.160;2023-02-28T08:25:41;4.00;;;1.90;;
24206;SDS011;12351;52.284;9.160;2023-02-28T08:28:29;4.03;;;2.13;;
24206;SDS011;12351;52.284;9.160;2023-02-28T08:31:20;4.23;;;2.00;;
24206;SDS011;12351;52.284;9.160;2023-02-28T08:34:10;6.83;;;2.10;;
24206;SDS011;12351;52.284;9.160;2023-02-28T08:36:58;4.63;;;2.20;;
24206;SDS011;12351;52.284;9.160;2023-02-28T08:39:50;4.13;;;2.57;;
24206;SDS011;12351;52.284;9.160;2023-02-28T08:42:39;6.60;;;2.73;;
24206;SDS011;12351;52.284;9.160;2023-02-28T08:45:29;4.67;;;2.43;;
24206;SDS011;12351;52.284;9.160;2023-02-28T08:48:20;3.47;;;1.90;;
24206;SDS011;12351;52.284;9.160;2023-02-28T08:51:10;4.90;;;1.83;;
24206;SDS011;12351;52.284;9.160;2023-02-28T08:54:03;4.42;;;2.00;;
24206;SDS011;12351;52.284;9.160;2023-02-28T08:56:52;4.93;;;2.00;;
24206;SDS011;12351;52.284;9.160;2023-02-28T08:59:44;5.33;;;2.07;;
24206;SDS011;12351;52.284;9.160;2023-02-28T09:02:32;3.30;;;2.00;;
24206;SDS011;12351;52.284;9.160;2023-02-28T09:05:20;3.57;;;2.10;;
24206;SDS011;12351;52.284;9.160;2023-02-28T09:08:13;3.30;;;1.90;;
24206;SDS011;12351;52.284;9.160;2023-02-28T09:11:01;2.30;;;1.87;;
24206;SDS011;12351;52.284;9.160;2023-02-28T09:16:39;3.73;;;1.80;;
24206;SDS011;12351;52.284;9.160;2023-02-28T09:19:32;4.23;;;1.70;;
24206;SDS011;12351;52.284;9.160;2023-02-28T09:22:21;5.57;;;2.37;;
24206;SDS011;12351;52.284;9.160;2023-02-28T09:25:10;4.13;;;2.20;;
24206;SDS011;12351;52.284;9.160;2023-02-28T09:28:00;2.37;;;1.77;;
24206;SDS011;12351;52.284;9.160;2023-02-28T09:30:50;2.87;;;1.53;;
24206;SDS011;12351;52.284;9.160;2023-02-28T09:33:43;5.10;;;1.67;;
24206;SDS011;12351;52.284;9.160;2023-02-28T09:36:33;2.60;;;1.40;;
24206;SDS011;12351;52.284;9.160;2023-02-28T09:39:25;2.02;;;1.50;;
24206;SDS011;12351;52.284;9.160;2023-02-28T09:42:18;4.40;;;1.60;;
24206;SDS011;12351;52.284;9.160;2023-02-28T09:47:56;2.50;;;1.60;;
24206;SDS011;12351;52.284;9.160;2023-02-28T09:50:48;4.10;;;1.97;;
24206;SDS011;12351;52.284;9.160;2023-02-28T09:53:37;2.80;;;1.73;;
24206;SDS011;12351;52.284;9.160;2023-02-28T09:56:31;3.47;;;1.83;;
24206;SDS011;12351;52.284;9.160;2023-02-28T10:02:13;4.33;;;1.80;;
24206;SDS011;12351;52.284;9.160;2023-02-28T10:04:59;4.30;;;1.90;;
24206;SDS011;12351;52.284;9.160;2023-02-28T10:07:53;3.80;;;1.70;;
24206;SDS011;12351;52.284;9.160;2023-02-28T10:10:42;3.50;;;1.63;;
24206;SDS011;12351;52.284;9.160;2023-02-28T10:16:23;4.43;;;1.60;;
24206;SDS011;12351;52.284;9.160;2023-02-28T10:22:05;3.73;;;1.90;;
24206;SDS011;12351;52.284;9.160;2023-02-28T10:24:54;3.07;;;1.60;;
24206;SDS011;12351;52.284;9.160;2023-02-28T10:27:46;5.27;;;1.67;;
24206;SDS011;12351;52.284;9.160;2023-02-28T10:30:36;2.63;;;1.53;;
24206;SDS011;12351;52.284;9.160;2023-02-28T10:36:18;3.27;;;1.77;;
24206;SDS011;12351;52.284;9.160;2023-02-28T10:42:00;4.67;;;1.40;;
24206;SDS011;12351;52.284;9.160;2023-02-28T10:56:04;3.00;;;1.40;;
24206;SDS011;12351;52.284;9.160;2023-02-28T10:58:53;2.90;;;1.70;;
24206;SDS011;12351;52.284;9.160;2023-02-28T11:01:44;4.60;;;1.60;;
24206;SDS011;12351;52.284;9.160;2023-02-28T11:04:36;2.33;;;1.57;;
24206;SDS011;12351;52.284;9.160;2023-02-28T11:07:27;2.57;;;1.43;;
24206;SDS011;12351;52.284;9.160;2023-02-28T11:10:20;3.25;;;1.50;;
24206;SDS011;12351;52.284;9.160;2023-02-28T11:13:12;3.13;;;1.33;;
24206;SDS011;12351;52.284;9.160;2023-02-28T11:16:02;2.10;;;1.03;;
24206;SDS011;12351;52.284;9.160;2023-02-28T11:18:50;1.77;;;1.50;;
24206;SDS011;12351;52.284;9.160;2023-02-28T11:21:45;4.62;;;1.80;;
24206;SDS011;12351;52.284;9.160;2023-02-28T11:24:35;3.63;;;1.50;;
24206;SDS011;12351;52.284;9.160;2023-02-28T11:35:57;5.53;;;2.03;;
24206;SDS011;12351;52.284;9.160;2023-02-28T11:38:46;2.60;;;1.70;;
24206;SDS011;12351;52.284;9.160;2023-02-28T11:47:19;4.50;;;1.67;;
24206;SDS011;12351;52.284;9.160;2023-02-28T11:53:02;3.53;;;1.80;;
24206;SDS011;12351;52.284;9.160;2023-02-28T12:01:38;4.00;;;2.30;;
24206;SDS011;12351;52.284;9.160;2023-02-28T12:04:25;3.40;;;1.90;;
24206;SDS011;12351;52.284;9.160;2023-02-28T12:07:18;3.97;;;1.80;;
24206;SDS011;12351;52.284;9.160;2023-02-28T12:21:27;3.58;;;1.60;;
24206;SDS011;12351;52.284;9.160;2023-02-28T12:27:07;3.97;;;2.10;;
24206;SDS011;12351;52.284;9.160;2023-02-28T12:29:58;2.63;;;1.90;;
24206;SDS011;12351;52.284;9.160;2023-02-28T12:32:48;2.90;;;1.60;;
24206;SDS011;12351;52.284;9.160;2023-02-28T12:35:38;3.67;;;1.50;;
24206;SDS011;12351;52.284;9.160;2023-02-28T12:38:31;3.40;;;1.75;;
24206;SDS011;12351;52.284;9.160;2023-02-28T12:41:19;1.85;;;1.20;;
24206;SDS011;12351;52.284;9.160;2023-02-28T12:44:02;2.33;;;1.40;;
24206;SDS011;12351;52.284;9.160;2023-02-28T12:46:53;1.65;;;1.30;;
24206;SDS011;12351;52.284;9.160;2023-02-28T13:01:39;1.82;;;1.10;;
24206;SDS011;12351;52.284;9.160;2023-02-28T13:04:02;1.80;;;1.20;;
24206;SDS011;12351;52.284;9.160;2023-02-28T13:09:36;1.98;;;1.27;;
24206;SDS011;12351;52.284;9.160;2023-02-28T13:12:27;2.27;;;1.12;;
24206;SDS011;12351;52.284;9.160;2023-02-28T13:15:18;6.10;;;2.70;;
24206;SDS011;12351;52.284;9.160;2023-02-28T13:18:19;8.40;;;2.70;;
24206;SDS011;12351;52.284;9.160;2023-02-28T13:21:01;3.72;;;1.35;;
24206;SDS011;12351;52.284;9.160;2023-02-28T13:29:37;2.10;;;1.00;;
24206;SDS011;12351;52.284;9.160;2023-02-28T13:35:34;2.95;;;1.20;;
24206;SDS011;12351;52.284;9.160;2023-02-28T13:38:12;3.35;;;1.10;;
24206;SDS011;12351;52.284;9.160;2023-02-28T13:49:33;3.60;;;1.47;;
24206;SDS011;12351;52.284;9.160;2023-02-28T13:52:24;3.02;;;1.47;;
24206;SDS011;12351;52.284;9.160;2023-02-28T13:55:19;3.25;;;1.75;;
24206;SDS011;12351;52.284;9.160;2023-02-28T14:03:44;2.02;;;1.50;;
24206;SDS011;12351;52.284;9.160;2023-02-28T14:06:33;2.85;;;2.12;;
24206;SDS011;12351;52.284;9.160;2023-02-28T14:17:59;3.35;;;1.47;;
24206;SDS011;12351;52.284;9.160;2023-02-28T14:20:50;2.75;;;1.72;;
24206;SDS011;12351;52.284;9.160;2023-02-28T14:23:43;5.03;;;1.70;;
24206;SDS011;12351;52.284;9.160;2023-02-28T14:37:54;3.27;;;1.80;;
24206;SDS011;12351;52.284;9.160;2023-02-28T14:40:45;4.67;;;1.90;;
24206;SDS011;12351;52.284;9.160;2023-02-28T14:43:36;3.25;;;1.95;;
24206;SDS011;12351;52.284;9.160;2023-02-28T14:46:26;2.47;;;1.70;;
24206;SDS011;12351;52.284;9.160;2023-02-28T14:55:01;4.25;;;2.05;;
24206;SDS011;12351;52.284;9.160;2023-02-28T14:57:53;3.08;;;1.80;;
24206;SDS011;12351;52.284;9.160;2023-02-28T15:03:37;3.52;;;2.33;;
24206;SDS011;12351;52.284;9.160;2023-02-28T15:06:28;3.77;;;2.00;;
24206;SDS011;12351;52.284;9.160;2023-02-28T15:09:18;4.20;;;2.20;;
24206;SDS011;12351;52.284;9.160;2023-02-28T15:12:08;4.00;;;2.00;;
24206;SDS011;12351;52.284;9.160;2023-02-28T15:14:59;2.93;;;2.00;;
24206;SDS011;12351;52.284;9.160;2023-02-28T15:17:52;3.95;;;2.12;;
24206;SDS011;12351;52.284;9.160;2023-02-28T15:20:41;3.27;;;2.20;;
24206;SDS011;12351;52.284;9.160;2023-02-28T15:23:33;3.05;;;1.90;;
24206;SDS011;12351;52.284;9.160;2023-02-28T15:26:24;3.12;;;1.70;;
24206;SDS011;12351;52.284;9.160;2023-02-28T15:29:17;5.53;;;2.60;;
24206;SDS011;12351;52.284;9.160;2023-02-28T15:32:07;4.50;;;2.00;;
24206;SDS011;12351;52.284;9.160;2023-02-28T15:34:57;3.00;;;1.90;;
24206;SDS011;12351;52.284;9.160;2023-02-28T15:37:53;6.95;;;2.40;;
24206;SDS011;12351;52.284;9.160;2023-02-28T15:40:41;4.20;;;2.10;;
24206;SDS011;12351;52.284;9.160;2023-02-28T15:43:33;6.25;;;2.30;;
24206;SDS011;12351;52.284;9.160;2023-02-28T15:46:22;4.28;;;2.30;;
24206;SDS011;12351;52.284;9.160;2023-02-28T15:49:17;3.40;;;1.87;;
24206;SDS011;12351;52.284;9.160;2023-02-28T15:52:02;3.10;;;1.80;;
24206;SDS011;12351;52.284;9.160;2023-02-28T15:54:49;6.15;;;2.10;;
24206;SDS011;12351;52.284;9.160;2023-02-28T15:57:37;8.13;;;2.17;;
24206;SDS011;12351;52.284;9.160;2023-02-28T16:00:28;4.72;;;2.47;;
24206;SDS011;12351;52.284;9.160;2023-02-28T16:06:08;2.90;;;2.00;;
24206;SDS011;12351;52.284;9.160;2023-02-28T16:08:57;3.98;;;2.02;;
24206;SDS011;12351;52.284;9.160;2023-02-28T16:11:46;5.78;;;2.60;;
24206;SDS011;12351;52.284;9.160;2023-02-28T16:14:35;8.93;;;3.92;;
24206;SDS011;12351;52.284;9.160;2023-02-28T16:17:25;3.98;;;2.58;;
24206;SDS011;12351;52.284;9.160;2023-02-28T16:23:03;3.40;;;2.30;;
24206;SDS011;12351;52.284;9.160;2023-02-28T16:25:50;4.58;;;2.98;;
24206;SDS011;12351;52.284;9.160;2023-02-28T16:28:38;4.42;;;2.90;;
24206;SDS011;12351;52.284;9.160;2023-02-28T16:31:25;6.08;;;3.85;;
24206;SDS011;12351;52.284;9.160;2023-02-28T16:34:13;6.40;;;2.98;;
24206;SDS011;12351;52.284;9.160;2023-02-28T16:37:00;5.92;;;2.85;;
24206;SDS011;12351;52.284;9.160;2023-02-28T16:39:47;5.08;;;2.15;;
24206;SDS011;12351;52.284;9.160;2023-02-28T16:42:36;4.15;;;1.60;;
24206;SDS011;12351;52.284;9.160;2023-02-28T16:45:25;10.35;;;2.40;;
24206;SDS011;12351;52.284;9.160;2023-02-28T16:48:15;9.48;;;2.27;;
24206;SDS011;12351;52.284;9.160;2023-02-28T16:51:03;4.00;;;2.12;;
24206;SDS011;12351;52.284;9.160;2023-02-28T16:53:50;5.90;;;2.40;;
24206;SDS011;12351;52.284;9.160;2023-02-28T16:56:38;4.10;;;2.35;;
24206;SDS011;12351;52.284;9.160;2023-02-28T16:59:27;2.15;;;1.82;;
24206;SDS011;12351;52.284;9.160;2023-02-28T17:05:04;2.90;;;1.50;;
24206;SDS011;12351;52.284;9.160;2023-02-28T17:07:52;2.30;;;1.70;;
24206;SDS011;12351;52.284;9.160;2023-02-28T17:10:41;5.20;;;1.62;;
24206;SDS011;12351;52.284;9.160;2023-02-28T17:13:31;6.40;;;1.30;;
24206;SDS011;12351;52.284;9.160;2023-02-28T17:18:59;2.40;;;1.67;;
24206;SDS011;12351;52.284;9.160;2023-02-28T17:21:48;2.77;;;1.35;;
24206;SDS011;12351;52.284;9.160;2023-02-28T17:24:35;3.12;;;1.12;;
24206;SDS011;12351;52.284;9.160;2023-02-28T17:27:22;4.15;;;1.10;;
24206;SDS011;12351;52.284;9.160;2023-02-28T17:32:51;4.97;;;1.33;;
24206;SDS011;12351;52.284;9.160;2023-02-28T17:35:39;1.80;;;1.37;;
24206;SDS011;12351;52.284;9.160;2023-02-28T17:38:26;2.33;;;1.55;;
24206;SDS011;12351;52.284;9.160;2023-02-28T17:41:14;2.47;;;1.20;;
24206;SDS011;12351;52.284;9.160;2023-02-28T17:44:01;2.25;;;1.30;;
24206;SDS011;12351;52.284;9.160;2023-02-28T17:46:49;3.15;;;2.00;;
24206;SDS011;12351;52.284;9.160;2023-02-28T17:49:36;3.60;;;1.37;;
24206;SDS011;12351;52.284;9.160;2023-02-28T17:52:23;1.77;;;1.25;;
24206;SDS011;12351;52.284;9.160;2023-02-28T17:55:10;4.00;;;1.62;;
24206;SDS011;12351;52.284;9.160;2023-02-28T17:57:58;2.25;;;1.40;;
24206;SDS011;12351;52.284;9.160;2023-02-28T18:00:45;2.33;;;1.30;;
24206;SDS011;12351;52.284;9.160;2023-02-28T18:03:32;3.20;;;1.52;;
24206;SDS011;12351;52.284;9.160;2023-02-28T18:06:22;4.17;;;1.50;;
24206;SDS011;12351;52.284;9.160;2023-02-28T18:09:10;2.45;;;1.30;;
24206;SDS011;12351;52.284;9.160;2023-02-28T18:11:57;2.60;;;1.52;;
24206;SDS011;12351;52.284;9.160;2023-02-28T18:14:43;3.30;;;1.40;;
24206;SDS011;12351;52.284;9.160;2023-02-28T18:17:31;3.47;;;1.70;;
24206;SDS011;12351;52.284;9.160;2023-02-28T18:20:18;3.12;;;1.60;;
24206;SDS011;12351;52.284;9.160;2023-02-28T18:23:05;4.33;;;1.43;;
24206;SDS011;12351;52.284;9.160;2023-02-28T18:25:52;3.57;;;1.83;;
24206;SDS011;12351;52.284;9.160;2023-02-28T18:28:39;5.03;;;2.00;;
24206;SDS011;12351;52.284;9.160;2023-02-28T18:31:27;2.90;;;1.92;;
24206;SDS011;12351;52.284;9.160;2023-02-28T18:34:16;3.90;;;1.90;;
24206;SDS011;12351;52.284;9.160;2023-02-28T18:37:04;2.97;;;2.10;;
24206;SDS011;12351;52.284;9.160;2023-02-28T18:39:50;6.00;;;1.90;;
24206;SDS011;12351;52.284;9.160;2023-02-28T18:42:37;4.07;;;2.10;;
24206;SDS011;12351;52.284;9.160;2023-02-28T18:45:23;4.67;;;2.20;;
24206;SDS011;12351;52.284;9.160;2023-02-28T18:48:10;3.47;;;2.03;;
24206;SDS011;12351;52.284;9.160;2023-02-28T18:50:57;3.53;;;1.90;;
24206;SDS011;12351;52.284;9.160;2023-02-28T18:53:45;2.87;;;2.03;;
24206;SDS011;12351;52.284;9.160;2023-02-28T18:56:35;2.87;;;2.10;;
24206;SDS011;12351;52.284;9.160;2023-02-28T18:59:24;4.07;;;2.10;;
24206;SDS011;12351;52.284;9.160;2023-02-28T19:02:15;2.90;;;1.77;;
24206;SDS011;12351;52.284;9.160;2023-02-28T19:05:04;2.43;;;1.87;;
24206;SDS011;12351;52.284;9.160;2023-02-28T19:07:55;2.60;;;1.80;;
24206;SDS011;12351;52.284;9.160;2023-02-28T19:10:45;3.97;;;1.70;;
24206;SDS011;12351;52.284;9.160;2023-02-28T19:13:37;2.70;;;1.87;;
24206;SDS011;12351;52.284;9.160;2023-02-28T19:16:27;4.20;;;2.13;;
24206;SDS011;12351;52.284;9.160;2023-02-28T19:19:18;3.83;;;1.80;;
24206;SDS011;12351;52.284;9.160;2023-02-28T19:22:10;3.00;;;2.10;;
24206;SDS011;12351;52.284;9.160;2023-02-28T19:25:00;6.30;;;2.30;;
24206;SDS011;12351;52.284;9.160;2023-02-28T19:27:52;2.40;;;1.70;;
24206;SDS011;12351;52.284;9.160;2023-02-28T19:33:32;2.80;;;2.00;;
24206;SDS011;12351;52.284;9.160;2023-02-28T19:36:21;3.07;;;1.80;;
24206;SDS011;12351;52.284;9.160;2023-02-28T19:39:12;4.00;;;2.47;;
24206;SDS011;12351;52.284;9.160;2023-02-28T19:42:01;2.57;;;1.70;;
24206;SDS011;12351;52.284;9.160;2023-02-28T19:44:52;4.77;;;2.10;;
24206;SDS011;12351;52.284;9.160;2023-02-28T19:47:43;2.97;;;1.83;;
24206;SDS011;12351;52.284;9.160;2023-02-28T19:50:34;2.67;;;1.53;;
24206;SDS011;12351;52.284;9.160;2023-02-28T19:53:24;3.57;;;1.60;;
24206;SDS011;12351;52.284;9.160;2023-02-28T19:56:14;2.17;;;1.70;;
24206;SDS011;12351;52.284;9.160;2023-02-28T19:59:05;4.07;;;1.83;;
24206;SDS011;12351;52.284;9.160;2023-02-28T20:01:56;3.10;;;1.77;;
24206;SDS011;12351;52.284;9.160;2023-02-28T20:04:45;2.87;;;1.83;;
24206;SDS011;12351;52.284;9.160;2023-02-28T20:07:37;3.07;;;1.77;;
24206;SDS011;12351;52.284;9.160;2023-02-28T20:10:29;3.43;;;1.80;;
24206;SDS011;12351;52.284;9.160;2023-02-28T20:13:18;2.87;;;1.80;;
24206;SDS011;12351;52.284;9.160;2023-02-28T20:16:07;3.17;;;1.63;;
24206;SDS011;12351;52.284;9.160;2023-02-28T20:18:57;3.73;;;1.70;;
24206;SDS011;12351;52.284;9.160;2023-02-28T20:21:46;4.37;;;2.07;;
24206;SDS011;12351;52.284;9.160;2023-02-28T20:24:37;3.47;;;2.00;;
24206;SDS011;12351;52.284;9.160;2023-02-28T20:27:27;3.83;;;2.13;;
24206;SDS011;12351;52.284;9.160;2023-02-28T20:30:16;3.67;;;2.00;;
24206;SDS011;12351;52.284;9.160;2023-02-28T20:33:08;4.57;;;2.20;;
24206;SDS011;12351;52.284;9.160;2023-02-28T20:35:59;3.50;;;2.10;;
24206;SDS011;12351;52.284;9.160;2023-02-28T20:38:50;2.57;;;2.10;;
24206;SDS011;12351;52.284;9.160;2023-02-28T20:41:42;2.77;;;1.80;;